Time;durP1;ratioP1;P1;durP2;ratioP2;P2;SDS_P1;SDS_P2;PMS_P1;PMS_P2;Temp;Humidity;BMP_temperature;BMP_pressure;BME280_temperature;BME280_humidity;BME280_pressure;Samples;Min_cycle;Max_cycle;Signal;HPM_P1;HPM_P2
2022/08/22 00:00:32;;;;;;;;;16.33;16.33;;;;;19.51;100.00;98787.41;6316734;20;3562774;-61
2022/08/22 00:14:01;;;;;;;;;14.14;12.71;;;;;19.61;100.00;98799.94;6292606;20;3534635;-61
2022/08/22 00:17:12;;;;;;;;;16.00;12.00;;;;;19.58;100.00;98800.31;6312889;20;2804431;-60
2022/08/22 00:20:12;;;;;;;;;17.33;13.67;;;;;19.55;100.00;98800.66;6337347;20;2483761;-60
2022/08/22 00:23:09;;;;;;;;;12.00;12.00;;;;;19.43;100.00;98790.13;6340817;20;3539824;-61
2022/08/22 00:26:26;;;;;;;;;14.67;13.67;;;;;19.42;100.00;98798.47;6310325;20;2487851;-61
2022/08/22 00:29:18;;;;;;;;;15.50;15.50;;;;;19.33;100.00;98797.63;6339049;20;2816979;-61
2022/08/22 00:32:25;;;;;;;;;17.00;15.00;;;;;19.43;100.00;98794.72;6308435;20;3548165;-61
2022/08/22 00:35:08;;;;;;;;;13.67;13.67;;;;;19.45;100.00;98796.22;6309037;20;3512749;-61
2022/08/22 00:38:17;;;;;;;;;15.00;13.00;;;;;19.41;100.00;98792.19;6338281;20;2494138;-61
2022/08/22 00:41:53;;;;;;;;;14.00;14.00;;;;;19.19;100.00;98796.44;6341115;20;3521319;-60
2022/08/22 00:45:31;;;;;;;;;16.67;13.33;;;;;19.13;100.00;98799.00;6304201;20;3541920;-61
2022/08/22 00:48:31;;;;;;;;;17.00;17.00;;;;;19.03;100.00;98800.03;6338872;20;2485937;-60
2022/08/22 00:51:43;;;;;;;;;16.50;14.00;;;;;18.88;100.00;98801.75;6308911;20;2808658;-61
2022/08/22 00:54:22;;;;;;;;;15.00;15.00;;;;;18.89;100.00;98798.00;6309232;20;2494094;-60
2022/08/22 00:57:44;;;;;;;;;14.50;14.50;;;;;18.83;100.00;98804.13;6337387;20;2496112;-61
2022/08/22 01:00:28;;;;;;;;;16.00;14.00;;;;;18.81;100.00;98800.72;6311887;20;2487752;-60
2022/08/22 01:03:24;;;;;;;;;13.67;13.67;;;;;18.62;100.00;98802.69;6305006;20;3514823;-59
2022/08/22 01:06:25;;;;;;;;;12.67;12.67;;;;;18.67;100.00;98809.47;6311325;20;3527330;-60
2022/08/22 01:09:40;;;;;;;;;15.00;15.00;;;;;18.69;100.00;98802.00;6337793;20;2492036;-60
2022/08/22 01:13:01;;;;;;;;;18.50;17.00;;;;;18.70;100.00;98804.59;6309492;20;2826707;-61
2022/08/22 01:15:36;;;;;;;;;19.33;15.67;;;;;18.76;100.00;98803.09;6278715;20;3557582;-61
2022/08/22 01:18:24;;;;;;;;;15.00;15.00;;;;;18.74;100.00;98810.53;6285519;20;3540991;-60
2022/08/22 01:21:36;;;;;;;;;13.67;12.67;;;;;18.81;100.00;98811.59;6317954;20;3529398;-60
2022/08/22 01:28:10;;;;;;;;;15.00;15.00;;;;;19.09;100.00;98814.84;6312699;20;3544084;-60
2022/08/22 01:30:46;;;;;;;;;16.67;15.33;;;;;19.07;100.00;98816.88;6290146;20;2802327;-61
2022/08/22 01:33:51;;;;;;;;;17.33;16.00;;;;;19.13;100.00;98809.91;6318971;20;3562762;-61
2022/08/22 01:36:54;;;;;;;;;19.50;17.50;;;;;19.29;100.00;98809.88;6317654;20;2822131;-61
2022/08/22 01:40:06;;;;;;;;;16.00;15.00;;;;;19.29;100.00;98809.88;6289115;20;2815119;-62
2022/08/22 01:43:03;;;;;;;;;14.33;13.00;;;;;19.22;100.00;98817.03;6285853;20;2494020;-61
2022/08/22 01:46:08;;;;;;;;;18.00;15.00;;;;;19.20;100.00;98810.91;6313231;20;2823211;-61
2022/08/22 01:48:54;;;;;;;;;17.00;15.00;;;;;19.06;100.00;98815.16;6284459;20;3550398;-61
2022/08/22 01:52:18;;;;;;;;;17.00;11.33;;;;;19.04;100.00;98812.63;6283534;20;3531539;-61
2022/08/22 01:55:06;;;;;;;;;15.50;15.50;;;;;19.00;100.00;98816.69;6281005;20;2819107;-61
2022/08/22 01:58:23;;;;;;;;;16.50;15.50;;;;;19.19;100.00;98820.09;6281252;20;2815905;-60
2022/08/22 02:01:34;;;;;;;;;15.33;15.00;;;;;19.21;100.00;98820.78;6284011;20;3532692;-61
2022/08/22 02:05:01;;;;;;;;;18.00;16.00;;;;;19.35;100.00;98811.06;6282440;20;2831547;-61
2022/08/22 02:07:56;;;;;;;;;19.67;16.33;;;;;19.25;100.00;98813.97;6281459;20;3562791;-61
2022/08/22 02:10:47;;;;;;;;;20.00;18.50;;;;;19.27;100.00;98796.47;6285936;20;2834692;-60
2022/08/22 02:13:57;;;;;;;;;16.00;16.00;;;;;19.28;100.00;98802.75;6284028;20;2831554;-60
2022/08/22 02:16:45;;;;;;;;;18.50;16.00;;;;;19.21;100.00;98794.41;6278976;20;2829672;-60
2022/08/22 02:19:14;;;;;;;;;18.50;17.00;;;;;19.21;100.00;98801.72;6282202;20;2830506;-60
2022/08/22 02:22:18;;;;;;;;;19.50;19.00;;;;;19.20;100.00;98794.59;6282941;20;2830489;-60
2022/08/22 02:25:24;;;;;;;;;18.00;17.00;;;;;19.20;100.00;98794.59;6280245;20;2833655;-60
2022/08/22 02:28:02;;;;;;;;;20.67;18.67;;;;;19.04;100.00;98801.75;6282219;20;3567933;-61
2022/08/22 02:30:59;;;;;;;;;23.00;20.00;;;;;18.87;100.00;98805.47;6283498;20;2844103;-61
2022/08/22 02:33:36;;;;;;;;;15.50;14.50;;;;;19.15;100.00;98796.97;6313836;20;2491909;-60
2022/08/22 02:36:52;;;;;;;;;17.00;15.50;;;;;19.24;100.00;98796.78;6284808;20;2814979;-61
2022/08/22 02:39:48;;;;;;;;;18.67;18.67;;;;;19.16;100.00;98799.50;6278705;20;2483616;-60
2022/08/22 02:42:46;;;;;;;;;17.67;17.67;;;;;19.10;100.00;98802.94;6315424;20;3570187;-61
2022/08/22 02:46:02;;;;;;;;;22.00;18.50;;;;;19.19;100.00;98793.72;6281101;20;2829484;-60
2022/08/22 02:49:11;;;;;;;;;18.00;16.50;;;;;19.29;100.00;98801.72;6282276;20;2833603;-61
2022/08/22 02:52:07;;;;;;;;;16.33;16.33;;;;;19.34;100.00;98807.50;6288256;20;3560846;-61
2022/08/22 02:54:42;;;;;;;;;19.00;16.33;;;;;19.25;100.00;98794.94;6314429;20;3555472;-60
2022/08/22 02:57:25;;;;;;;;;17.00;17.00;;;;;19.19;100.00;98809.19;6313103;20;2832537;-61
2022/08/22 03:00:14;;;;;;;;;18.50;18.50;;;;;19.18;100.00;98797.47;6283499;20;2835699;-61
2022/08/22 03:03:05;;;;;;;;;20.00;17.00;;;;;19.07;100.00;98795.09;6284718;20;2828371;-61
2022/08/22 03:05:37;;;;;;;;;21.00;18.33;;;;;19.05;100.00;98792.53;6281631;20;2494010;-61
2022/08/22 03:09:07;;;;;;;;;20.33;20.33;;;;;18.95;100.00;98796.47;6315548;20;3570074;-60
2022/08/22 03:11:41;;;;;;;;;19.50;19.50;;;;;18.82;100.00;98796.97;6282258;20;2837786;-60
2022/08/22 03:14:57;;;;;;;;;19.00;18.00;;;;;18.68;100.00;98800.31;6281198;20;2835777;-60
2022/08/22 03:17:48;;;;;;;;;21.00;19.50;;;;;18.64;100.00;98800.66;6283189;20;2828457;-61
2022/08/22 03:21:24;;;;;;;;;16.50;16.50;;;;;18.40;100.00;98806.03;6279802;20;2824289;-60
2022/08/22 03:24:08;;;;;;;;;20.50;19.00;;;;;18.41;100.00;98810.47;6281017;20;2836775;-61
2022/08/22 03:26:56;;;;;;;;;20.67;19.00;;;;;18.46;100.00;98818.09;6281488;20;2834777;-61
2022/08/22 03:29:42;;;;;;;;;19.00;19.00;;;;;18.39;100.00;98813.34;6314293;20;2829410;-60
2022/08/22 03:32:20;;;;;;;;;19.50;18.00;;;;;18.42;100.00;98817.59;6283629;20;2835680;-61
2022/08/22 03:34:58;;;;;;;;;15.50;15.50;;;;;18.49;100.00;98815.09;6280923;20;2811706;-63
2022/08/22 03:37:36;;;;;;;;;15.00;15.00;;;;;18.49;100.00;98818.66;6282762;20;2804521;-61
2022/08/22 03:41:13;;;;;;;;;20.00;20.00;;;;;18.58;100.00;98833.94;6282085;20;2832568;-63
2022/08/22 03:44:50;;;;;;;;;23.00;20.00;;;;;18.63;100.00;98830.72;6282663;20;3582516;-63
2022/08/22 03:48:01;;;;;;;;;19.00;19.00;;;;;18.67;100.00;98825.81;6278851;20;2837756;-63
2022/08/22 03:50:59;;;;;;;;;20.67;19.00;;;;;18.85;100.00;98829.25;6289703;20;3577748;-62
2022/08/22 03:53:36;;;;;;;;;20.50;20.50;;;;;18.91;100.00;98828.59;6276551;20;2832591;-62
2022/08/22 03:56:36;;;;;;;;;23.00;20.00;;;;;18.86;100.00;98822.81;6283249;20;2838830;-61
2022/08/22 03:59:43;;;;;;;;;22.67;21.67;;;;;19.03;100.00;98831.81;6282927;20;3573314;-62
2022/08/22 04:02:49;;;;;;;;;18.50;18.00;;;;;18.92;100.00;98835.72;6279041;20;2830460;-63
2022/08/22 04:06:21;;;;;;;;;21.33;19.00;;;;;19.08;100.00;98833.00;6289232;20;3574313;-61
2022/08/22 04:09:39;;;;;;;;;17.50;15.50;;;;;19.12;100.00;98830.81;6280733;20;2827365;-62
2022/08/22 04:12:53;;;;;;;;;21.00;19.00;;;;;19.07;100.00;98838.63;6278955;20;2835695;-61
2022/08/22 04:16:13;;;;;;;;;22.33;20.33;;;;;19.08;100.00;98837.59;6284247;20;2842053;-51
2022/08/22 04:20:18;;;;;;;;;20.00;18.00;;;;;19.10;100.00;98838.28;6316008;20;3573141;-53
2022/08/22 04:24:24;;;;;;;;;18.80;18.80;;;;;19.17;100.00;98839.31;6294437;20;3568998;-61
2022/08/22 04:27:45;;;;;;;;;22.00;17.50;;;;;19.14;100.00;98844.25;6307202;20;2835740;-62
2022/08/22 04:30:41;;;;;;;;;20.67;20.00;;;;;19.33;100.00;98841.19;6309169;20;2837771;-63
2022/08/22 04:33:27;;;;;;;;;15.00;15.00;;;;;19.29;100.00;98839.81;6340760;20;3533575;-63
2022/08/22 04:36:19;;;;;;;;;22.67;22.67;;;;;19.11;100.00;98842.72;6310397;20;3574179;-62
2022/08/22 04:39:01;;;;;;;;;22.00;19.00;;;;;19.14;100.00;98846.97;6311594;20;3559612;-62
2022/08/22 04:41:50;;;;;;;;;22.50;21.00;;;;;19.23;100.00;98844.06;6308097;20;3513777;-62
2022/08/22 04:44:42;;;;;;;;;21.00;20.00;;;;;19.47;100.00;98840.47;6344522;20;3574162;-62
2022/08/22 04:48:05;;;;;;;;;23.67;22.00;;;;;19.42;100.00;98847.47;6304905;20;2846543;-62
2022/08/22 04:50:56;;;;;;;;;22.33;20.67;;;;;19.69;100.00;98844.38;6343810;20;3571116;-62
2022/08/22 04:54:37;;;;;;;;;20.50;20.50;;;;;19.63;100.00;98849.66;6306575;20;2837754;-62
2022/08/22 04:57:44;;;;;;;;;23.00;20.00;;;;;19.67;100.00;98851.06;6306803;20;2826308;-62
2022/08/22 05:00:16;;;;;;;;;20.50;20.00;;;;;19.76;100.00;98855.44;6311596;20;2840026;-62
2022/08/22 05:02:54;;;;;;;;;24.00;21.33;;;;;19.75;100.00;98853.75;6309736;20;3587727;-62
2022/08/22 05:05:37;;;;;;;;;29.50;24.00;;;;;19.67;100.00;98854.63;6309001;20;2832654;-62
2022/08/22 05:08:16;;;;;;;;;23.00;21.00;;;;;19.75;100.00;98859.19;6307552;20;3575313;-62
2022/08/22 05:10:49;;;;;;;;;26.67;24.00;;;;;19.86;100.00;98856.09;6311231;20;3573267;-62
2022/08/22 05:13:38;;;;;;;;;24.67;22.00;;;;;19.85;100.00;98857.13;6310470;20;3576387;-62
2022/08/22 05:16:22;;;;;;;;;22.67;21.33;;;;;19.94;100.00;98864.25;6307571;20;3581595;-62
2022/08/22 05:19:25;;;;;;;;;23.33;21.00;;;;;20.00;100.00;98859.13;6310737;20;3573308;-62
2022/08/22 05:22:00;;;;;;;;;32.00;26.00;;;;;19.97;100.00;98864.94;6306503;20;3590260;-62
2022/08/22 05:24:39;;;;;;;;;26.00;23.67;;;;;19.99;100.00;98868.34;6309008;20;3576252;-62
2022/08/22 05:27:17;;;;;;;;;28.67;23.67;;;;;20.07;100.00;98869.16;6308495;20;2848257;-62
2022/08/22 05:29:54;;;;;;;;;26.33;26.00;;;;;19.97;100.00;98878.56;6341140;20;3592965;-62
2022/08/22 05:32:55;;;;;;;;;26.67;22.67;;;;;20.06;100.00;98877.50;6309893;20;3583578;-62
2022/08/22 05:35:44;;;;;;;;;23.00;23.00;;;;;20.02;100.00;98892.50;6290117;20;3576300;-62
2022/08/22 05:38:27;;;;;;;;;27.33;25.00;;;;;19.97;100.00;98886.72;6287344;20;3575219;-62
2022/08/22 05:41:17;;;;;;;;;30.00;26.67;;;;;19.93;100.00;98884.34;6287882;20;3596213;-62
2022/08/22 05:43:48;;;;;;;;;29.75;27.25;;;;;20.06;100.00;98885.66;6284018;20;3596041;-62
2022/08/22 05:46:42;;;;;;;;;30.00;27.25;;;;;20.11;100.00;98894.16;6317032;20;3600375;-62
2022/08/22 05:49:23;;;;;;;;;30.00;26.00;;;;;20.13;100.00;98889.41;6316795;20;3577335;-62
2022/08/22 05:52:43;;;;;;;;;28.00;23.00;;;;;20.19;100.00;98894.13;6286564;20;3577285;-62
2022/08/22 05:56:10;;;;;;;;;29.67;26.67;;;;;20.26;100.00;98889.69;6279774;20;3596063;-62
2022/08/22 05:58:54;;;;;;;;;32.00;25.33;;;;;20.32;100.00;98899.88;6281041;20;3610631;-62
2022/08/22 06:01:43;;;;;;;;;34.00;30.00;;;;;20.20;100.00;98901.31;6317095;20;3603487;-62
2022/08/22 06:04:42;;;;;;;;;30.67;29.33;;;;;20.25;100.00;98909.81;6283231;20;1922234;-62
2022/08/22 06:07:32;;;;;;;;;28.33;27.00;;;;;20.20;100.00;98901.31;6317857;20;3584760;-62
2022/08/22 06:10:45;;;;;;;;;28.00;28.00;;;;;20.20;100.00;98905.91;6285294;20;3589801;-61
2022/08/22 06:13:50;;;;;;;;;28.00;28.00;;;;;20.02;100.00;98895.22;6287042;20;3600295;-61
2022/08/22 06:16:41;;;;;;;;;34.50;30.50;;;;;20.10;100.00;98896.06;6282990;20;3603497;-61
2022/08/22 06:19:18;;;;;;;;;30.33;27.33;;;;;20.28;100.00;98898.56;6309614;20;3595039;-61
2022/08/22 06:21:51;;;;;;;;;28.00;27.00;;;;;20.52;100.00;98900.31;6281210;20;3591898;-61
2022/08/22 06:24:26;;;;;;;;;28.67;26.33;;;;;20.45;100.00;98903.94;6280028;20;3592924;-57
2022/08/22 06:27:10;;;;;;;;;34.00;28.50;;;;;20.62;100.00;98911.06;6277952;20;3602358;-57
2022/08/22 06:29:48;;;;;;;;;29.50;29.25;;;;;20.50;100.00;98913.28;6311957;20;3604410;-59
2022/08/22 06:32:29;;;;;;;;;35.00;30.00;;;;;20.74;100.00;98908.75;6310617;20;3621100;-59
2022/08/22 06:38:33;;;;;;;;;32.00;30.00;;;;;21.16;100.00;98910.22;6280273;20;3574281;-58
2022/08/22 06:41:06;;;;;;;;;31.67;29.00;;;;;21.34;100.00;98912.66;6279282;20;3600316;-59
2022/08/22 06:43:42;;;;;;;;;34.00;31.67;;;;;21.32;100.00;98910.09;6280184;20;3567964;-57
2022/08/22 06:46:15;;;;;;;;;31.00;25.00;;;;;20.96;100.00;98907.13;6279362;20;3582593;-58
2022/08/22 06:48:45;;;;;;;;;26.33;25.67;;;;;20.96;100.00;98920.78;6277099;20;3577880;-58
2022/08/22 06:51:18;;;;;;;;;35.33;31.00;;;;;21.12;100.00;98925.28;6280235;20;3598273;-58
2022/08/22 06:53:55;;;;;;;;;31.00;30.00;;;;;21.00;100.00;98924.81;6283408;20;3601379;-55
2022/08/22 06:56:33;;;;;;;;;28.00;26.33;;;;;20.95;100.00;98928.09;6281442;20;3598201;-57
2022/08/22 06:59:14;;;;;;;;;35.75;31.00;;;;;21.09;100.00;98923.75;6283738;20;3605509;-59
2022/08/22 07:02:23;;;;;;;;;30.00;27.00;;;;;21.23;100.00;98931.16;6316048;20;3591951;-58
2022/08/22 07:04:52;;;;;;;;;30.33;26.67;;;;;21.44;100.00;98921.47;6283218;20;3594078;-56
2022/08/22 07:07:25;;;;;;;;;29.33;28.33;;;;;21.55;100.00;98931.97;6285490;20;3588755;-58
2022/08/22 07:09:56;;;;;;;;;34.33;29.00;;;;;21.54;100.00;98935.75;6287766;20;3586707;-58
2022/08/22 07:12:31;;;;;;;;;30.67;27.67;;;;;21.31;100.00;98945.78;6289931;20;3598181;-61
2022/08/22 07:15:35;;;;;;;;;31.67;27.00;;;;;21.35;100.00;98941.66;6284904;20;3587809;-63
2022/08/22 07:18:23;;;;;;;;;28.33;26.67;;;;;21.25;100.00;98937.28;6285778;20;3586740;-61
2022/08/22 07:20:58;;;;;;;;;31.00;28.33;;;;;21.35;100.00;98944.38;6284115;20;3596047;-62
2022/08/22 07:23:39;;;;;;;;;30.00;28.50;;;;;;;;6283794;20;3606521;-62
2022/08/22 07:26:42;;;;;;;;;26.33;23.67;;;;;21.21;100.00;98938.66;6312820;20;3585634;-61
2022/08/22 07:29:46;;;;;;;;;31.33;30.00;;;;;21.16;100.00;98940.25;6283880;20;3602299;-61
2022/08/22 07:32:55;;;;;;;;;23.67;22.67;;;;;21.35;100.00;98947.09;6289629;20;3583617;-61
2022/08/22 07:35:59;;;;;;;;;28.25;26.75;;;;;21.57;100.00;98942.72;6284220;20;3600363;-62
2022/08/22 07:38:43;;;;;;;;;27.33;25.33;;;;;21.33;100.00;98940.97;6318100;20;3574233;-61
2022/08/22 07:41:35;;;;;;;;;30.33;28.67;;;;;21.13;100.00;98944.19;6283826;20;3590270;-61
2022/08/22 07:44:22;;;;;;;;;31.67;28.00;;;;;21.12;100.00;98950.69;6275882;20;3604451;-61
2022/08/22 07:47:08;;;;;;;;;31.00;28.75;;;;;21.35;100.00;98952.56;6279513;20;3603393;-61
2022/08/22 07:50:03;;;;;;;;;28.67;25.33;;;;;21.54;100.00;98953.97;6313178;20;3584717;-61
2022/08/22 07:52:44;;;;;;;;;26.33;24.67;;;;;21.67;100.00;98959.72;6279677;20;2836779;-61
2022/08/22 07:55:23;;;;;;;;;27.00;25.33;;;;;21.86;100.00;98958.34;6315184;20;3586692;-61
2022/08/22 07:58:02;;;;;;;;;30.00;25.00;;;;;22.14;100.00;98964.91;6283266;20;3607542;-61
2022/08/22 08:00:32;;;;;;;;;30.33;27.33;;;;;22.64;100.00;98962.47;6316452;20;3594069;-61
2022/08/22 08:03:06;;;;;;;;;26.67;26.67;;;;;22.38;100.00;98957.50;6280210;20;3580722;-61
2022/08/22 08:05:40;;;;;;;;;26.00;25.00;;;;;22.22;100.00;98963.13;6284428;20;3575329;-61
2022/08/22 08:08:33;;;;;;;;;26.67;23.67;;;;;22.37;100.00;98954.94;6282319;20;3564944;-61
2022/08/22 08:11:04;;;;;;;;;29.00;26.67;;;;;22.64;100.00;98965.22;6281988;20;3585761;-61
2022/08/22 08:13:45;;;;;;;;;25.33;25.33;;;;;22.34;100.00;98951.53;6278826;20;3583613;-61
2022/08/22 08:16:24;;;;;;;;;25.33;25.00;;;;;22.52;100.00;98956.66;6279757;20;3574335;-62
2022/08/22 08:18:58;;;;;;;;;22.00;22.00;;;;;22.76;98.92;98950.00;6282220;20;3566949;-62
2022/08/22 08:21:48;;;;;;;;;25.00;24.33;;;;;22.73;98.51;98963.25;6283551;20;3578440;-62
2022/08/22 08:24:28;;;;;;;;;24.00;22.33;;;;;22.61;99.02;98962.00;6280411;20;3566925;-62
2022/08/22 08:30:15;;;;;;;;;24.00;23.50;;;;;23.00;96.66;98950.75;6311671;20;3513764;-61
2022/08/22 08:32:54;;;;;;;;;23.67;23.67;;;;;22.85;95.40;98958.13;6317179;20;3570109;-61
2022/08/22 08:35:52;;;;;;;;;26.67;23.00;;;;;22.79;98.00;98957.00;6280914;20;3569663;-61
2022/08/22 08:39:37;;;;;;;;;27.00;22.67;;;;;22.49;99.45;98954.28;6284601;20;3558657;-61
2022/08/22 08:46:16;;;;;;;;;29.67;25.67;;;;;22.94;97.12;98949.59;6282307;20;3592074;-61
2022/08/22 08:49:00;;;;;;;;;26.00;26.00;;;;;23.22;96.97;98943.41;6284342;20;3585700;-61
2022/08/22 08:52:50;;;;;;;;;18.50;16.50;;;;;22.88;97.39;98944.03;6282071;20;2825293;-61
2022/08/22 08:55:53;;;;;;;;;26.00;26.00;;;;;23.01;94.60;98946.97;6279643;20;3570060;-61
2022/08/22 08:59:10;;;;;;;;;22.00;22.00;;;;;22.89;94.96;98953.97;6278916;20;3574343;-62
2022/08/22 09:02:23;;;;;;;;;28.00;25.00;;;;;22.82;96.23;98966.72;6278324;20;3582715;-61
2022/08/22 09:05:27;;;;;;;;;21.33;19.67;;;;;22.58;100.00;98963.25;6280318;20;3575354;-61
2022/08/22 09:08:26;;;;;;;;;30.33;27.33;;;;;22.68;99.80;98965.69;6286212;20;3590928;-61
2022/08/22 09:11:38;;;;;;;;;30.00;28.33;;;;;22.58;100.00;98963.25;6292371;20;3596114;-61
2022/08/22 09:14:36;;;;;;;;;25.00;24.67;;;;;22.68;100.00;98974.75;6288361;20;3592955;-61
2022/08/22 09:18:02;;;;;;;;;30.33;28.33;;;;;22.72;100.00;98975.22;6290793;20;3587749;-58
2022/08/22 09:21:00;;;;;;;;;32.33;30.33;;;;;22.73;100.00;98965.97;6291862;20;3600447;-61
2022/08/22 09:24:24;;;;;;;;;31.67;30.00;;;;;22.86;100.00;98977.09;6287887;20;3602490;-61
2022/08/22 09:27:11;;;;;;;;;31.00;28.00;;;;;23.08;100.00;98979.91;6285309;20;2680510;-61
2022/08/22 09:30:18;;;;;;;;;33.00;30.67;;;;;22.96;99.55;98974.94;6318124;20;3593991;-61
2022/08/22 09:33:16;;;;;;;;;29.33;26.00;;;;;23.15;98.27;98980.84;6286120;20;3585727;-61
2022/08/22 09:36:17;;;;;;;;;26.00;25.00;;;;;23.16;98.30;98977.06;6288246;20;3579481;-61
2022/08/22 09:39:15;;;;;;;;;32.25;29.75;;;;;23.37;97.62;98978.97;6284557;20;3603433;-61
2022/08/22 09:42:29;;;;;;;;;30.67;28.67;;;;;23.47;97.61;98979.50;6313707;20;3603390;-61
2022/08/22 09:45:35;;;;;;;;;22.33;19.67;;;;;23.28;95.52;98975.53;6281867;20;3572130;-59
2022/08/22 09:48:42;;;;;;;;;27.00;25.00;;;;;23.43;96.46;98989.16;6287199;20;3596064;-58
2022/08/22 09:51:49;;;;;;;;;23.67;22.33;;;;;23.42;95.89;98982.84;6289494;20;3579427;-60
2022/08/22 09:54:50;;;;;;;;;32.67;26.33;;;;;23.50;95.41;98983.75;6289325;20;3591249;-62
2022/08/22 09:58:03;;;;;;;;;21.00;20.33;;;;;24.21;91.73;98990.13;6288407;20;3565901;-62
2022/08/22 10:01:23;;;;;;;;;24.67;24.33;;;;;25.11;88.41;98988.31;6286784;20;3583574;-61
2022/08/22 10:04:41;;;;;;;;;25.00;21.33;;;;;25.26;87.38;98981.88;6281402;20;3577346;-61
2022/08/22 10:07:52;;;;;;;;;22.00;21.00;;;;;24.88;88.78;98983.19;6284495;20;3580451;-61
2022/08/22 10:10:54;;;;;;;;;23.67;21.33;;;;;24.41;89.09;98986.66;6288935;20;3573142;-62
2022/08/22 10:14:19;;;;;;;;;23.67;22.33;;;;;24.81;88.22;98981.44;6288055;20;3574235;-61
2022/08/22 10:17:22;;;;;;;;;19.00;18.00;;;;;25.44;85.24;98979.38;6287342;20;3575216;-62
2022/08/22 10:20:03;;;;;;;;;26.67;23.33;;;;;25.95;83.14;98972.50;6286920;20;3579448;-62
2022/08/22 10:22:40;;;;;;;;;25.00;22.00;;;;;25.91;82.98;98983.09;6282324;20;3592931;-62
2022/08/22 10:25:48;;;;;;;;;19.00;19.00;;;;;25.52;81.92;98979.19;6286902;20;3573150;-60
2022/08/22 10:29:13;;;;;;;;;21.00;19.67;;;;;25.21;84.38;98976.16;6285629;20;3581510;-61
2022/08/22 10:32:01;;;;;;;;;19.00;19.00;;;;;25.30;84.11;98981.22;6286132;20;3558972;-60
2022/08/22 10:34:47;;;;;;;;;28.50;24.50;;;;;25.34;84.26;98981.69;6283034;20;3598186;-53
2022/08/22 10:37:55;;;;;;;;;22.67;19.33;;;;;25.35;83.56;98978.72;6312706;20;3579444;-53
2022/08/22 10:40:40;;;;;;;;;18.33;16.00;;;;;25.91;81.11;98974.81;6313592;20;3566901;-55
2022/08/22 10:43:47;;;;;;;;;22.33;21.33;;;;;25.82;82.22;98984.28;6287208;20;3561673;-54
2022/08/22 10:47:00;;;;;;;;;21.00;18.33;;;;;25.56;80.66;98980.44;6285071;20;3575420;-61
2022/08/22 10:50:26;;;;;;;;;21.00;18.00;;;;;25.82;80.08;98982.38;6285806;20;3558652;-61
2022/08/22 10:53:33;;;;;;;;;16.00;13.33;;;;;25.73;77.95;98986.41;6280274;20;3531487;-61
2022/08/22 10:56:36;;;;;;;;;11.67;11.67;;;;;25.69;79.67;98976.88;6285585;20;3520087;-62
2022/08/22 10:59:31;;;;;;;;;17.33;16.67;;;;;25.14;80.50;98976.91;6321135;20;3563779;-61
2022/08/22 11:03:04;;;;;;;;;18.00;18.00;;;;;25.70;79.13;98970.34;6288589;20;3568028;-61
2022/08/22 11:06:02;;;;;;;;;19.00;17.33;;;;;25.86;78.00;98979.25;6278870;20;3574313;-61
2022/08/22 11:09:20;;;;;;;;;18.33;16.67;;;;;24.98;79.71;98978.13;6283537;20;2836785;-60
2022/08/22 11:12:27;;;;;;;;;21.67;20.00;;;;;25.23;79.93;98969.41;6314411;20;3571273;-60
2022/08/22 11:15:33;;;;;;;;;19.00;17.33;;;;;25.56;80.21;98971.34;6286033;20;3564821;-62
2022/08/22 11:18:30;;;;;;;;;19.67;17.00;;;;;25.51;78.93;98969.22;6283030;20;3571071;-61
2022/08/22 11:21:44;;;;;;;;;19.00;16.00;;;;;25.40;77.98;98967.09;6283461;20;3558966;-61
2022/08/22 11:24:49;;;;;;;;;20.00;17.67;;;;;25.34;79.46;98970.69;6281416;20;3567950;-63
2022/08/22 11:27:38;;;;;;;;;20.67;20.67;;;;;25.58;77.86;98972.00;6286481;20;3573160;-61
2022/08/22 11:30:31;;;;;;;;;20.33;19.67;;;;;25.66;75.93;98971.81;6283472;20;3577411;-61
2022/08/22 11:33:58;;;;;;;;;19.00;18.00;;;;;25.79;75.77;98971.81;6283793;20;3575375;-61
2022/08/22 11:37:13;;;;;;;;;19.00;17.33;;;;;26.71;73.97;98972.00;6278312;20;2839994;-61
2022/08/22 11:40:23;;;;;;;;;21.33;19.67;;;;;26.24;74.23;98961.03;6320019;20;3577296;-61
2022/08/22 11:43:22;;;;;;;;;22.33;20.33;;;;;26.45;75.26;98968.19;6286369;20;3579820;-61
2022/08/22 11:45:58;;;;;;;;;20.67;20.67;;;;;26.18;74.50;98956.41;6284066;20;3568973;-61
2022/08/22 11:49:09;;;;;;;;;23.00;19.33;;;;;26.64;73.80;98960.13;6282999;20;3587149;-61
2022/08/22 11:52:04;;;;;;;;;19.00;19.00;;;;;25.95;73.18;98950.47;6283937;20;3564850;-61
2022/08/22 11:55:39;;;;;;;;;19.00;17.67;;;;;26.14;75.27;98946.84;6282467;20;3566989;-61
2022/08/22 11:58:49;;;;;;;;;20.33;20.33;;;;;26.38;74.86;98948.09;6280601;20;3572146;-61
2022/08/22 12:01:53;;;;;;;;;21.33;19.00;;;;;26.26;73.49;98947.91;6288149;20;3581542;-61
2022/08/22 12:05:08;;;;;;;;;18.33;18.00;;;;;26.06;74.77;98942.41;6282496;20;3581579;-61
2022/08/22 12:08:04;;;;;;;;;17.00;16.00;;;;;26.33;72.65;98938.78;6280697;20;3561177;-61
2022/08/22 12:10:49;;;;;;;;;16.67;16.67;;;;;25.96;73.16;98941.16;6283732;20;3570048;-61
2022/08/22 12:13:32;;;;;;;;;15.67;15.33;;;;;26.17;73.96;98940.09;6280229;20;2483626;-61
2022/08/22 12:16:13;;;;;;;;;18.67;18.00;;;;;26.26;72.54;98942.41;6315328;20;3568039;-61
2022/08/22 12:19:13;;;;;;;;;18.00;15.33;;;;;26.18;70.26;98945.38;6314214;20;3555489;-61
2022/08/22 12:22:24;;;;;;;;;21.00;19.33;;;;;26.67;71.21;98940.41;6312689;20;3571225;-62
2022/08/22 12:25:26;;;;;;;;;21.00;19.67;;;;;27.19;69.88;98941.28;6285338;20;3573183;-62
2022/08/22 12:28:46;;;;;;;;;18.67;17.67;;;;;27.16;71.07;98941.69;6283440;20;3566903;-62
2022/08/22 12:32:01;;;;;;;;;20.33;19.00;;;;;26.73;71.56;98936.81;6283886;20;3573139;-62
2022/08/22 12:35:28;;;;;;;;;19.33;17.33;;;;;26.33;72.15;98934.16;6284030;20;2825330;-63
2022/08/22 12:38:37;;;;;;;;;18.00;16.67;;;;;26.11;73.63;98932.69;6312494;20;3560664;-62
2022/08/22 12:41:27;;;;;;;;;19.00;17.00;;;;;26.40;72.57;98921.19;6280652;20;2820231;-62
2022/08/22 12:44:38;;;;;;;;;18.00;16.00;;;;;27.03;68.57;98926.06;6289495;20;3569056;-61
2022/08/22 12:48:07;;;;;;;;;20.67;16.00;;;;;26.93;71.75;98932.03;6287913;20;3569088;-62
2022/08/22 12:51:02;;;;;;;;;21.00;20.00;;;;;26.25;74.18;98928.84;6288027;20;3575239;-59
2022/08/22 12:54:31;;;;;;;;;19.00;18.00;;;;;25.51;78.26;98922.50;6287651;20;3564831;-60
2022/08/22 12:57:14;;;;;;;;;25.00;22.67;;;;;24.91;80.91;98913.25;6287720;20;3572205;-55
2022/08/22 13:00:22;;;;;;;;;23.00;23.00;;;;;24.85;84.05;98916.81;6288486;20;3575318;-57
2022/08/22 13:02:58;;;;;;;;;24.00;22.00;;;;;24.50;90.01;98914.97;6285300;20;3577382;-56
2022/08/22 13:05:30;;;;;;;;;29.00;27.67;;;;;24.07;91.17;98925.25;6284930;20;3597266;-57
2022/08/22 13:08:22;;;;;;;;;29.00;26.75;;;;;23.42;95.56;98917.06;6283704;20;3602328;-52
2022/08/22 13:11:11;;;;;;;;;29.25;26.25;;;;;23.37;100.00;98922.28;6317426;20;3606610;-59
2022/08/22 13:14:01;;;;;;;;;32.14;29.29;;;;;23.18;100.00;98926.53;6330921;20;3608686;-58
2022/08/22 13:16:42;;;;;;;;;30.00;29.50;;;;;22.82;100.00;98929.22;6285407;20;3610910;-57
2022/08/22 13:19:28;;;;;;;;;40.00;32.67;;;;;22.79;100.00;98929.63;6316324;20;3586712;-57
2022/08/22 13:22:12;;;;;;;;;30.00;28.33;;;;;22.95;100.00;98943.06;6312128;20;3598222;-57
2022/08/22 13:24:50;;;;;;;;;30.25;27.50;;;;;22.82;100.00;98942.91;6317989;20;3606662;-50
2022/08/22 13:27:43;;;;;;;;;31.33;29.33;;;;;22.49;100.00;98948.81;6319042;20;3593972;-49
2022/08/22 13:30:39;;;;;;;;;41.25;31.00;;;;;21.89;100.00;98955.25;6289878;20;3595254;-53
2022/08/22 13:33:15;;;;;;;;;39.00;33.33;;;;;21.90;100.00;98952.31;6322642;20;3583615;-51
2022/08/22 13:36:11;;;;;;;;;42.00;31.67;;;;;22.16;100.00;98958.38;6284811;20;3603439;-54